createdAt,value
2023-02-07T00:00:02.573Z,1031.24
2023-02-07T00:01:02.566Z,1031.21
2023-02-07T00:02:02.612Z,1031.20
2023-02-07T00:03:02.605Z,1031.20
2023-02-07T00:04:02.538Z,1031.23
2023-02-07T00:05:02.537Z,1031.25
2023-02-07T00:06:02.502Z,1031.30
2023-02-07T00:07:02.504Z,1031.32
2023-02-07T00:08:02.475Z,1031.35
2023-02-07T00:09:02.487Z,1031.34
2023-02-07T00:10:02.468Z,1031.37
2023-02-07T00:11:02.448Z,1031.38
2023-02-07T00:12:02.436Z,1031.43
2023-02-07T00:13:04.250Z,1031.46
2023-02-07T00:14:02.475Z,1031.45
2023-02-07T00:15:02.430Z,1031.39
2023-02-07T00:16:02.395Z,1031.32
2023-02-07T00:17:02.399Z,1031.27
2023-02-07T00:18:02.384Z,1031.26
2023-02-07T00:19:02.383Z,1031.25
2023-02-07T00:20:02.366Z,1031.24
2023-02-07T00:21:02.356Z,1031.23
2023-02-07T00:22:02.330Z,1031.23
2023-02-07T00:23:02.357Z,1031.22
2023-02-07T00:24:02.313Z,1031.24
2023-02-07T00:25:02.332Z,1031.28
2023-02-07T00:26:02.296Z,1031.31
2023-02-07T00:27:02.283Z,1031.31
2023-02-07T00:28:02.353Z,1031.31
2023-02-07T00:29:02.270Z,1031.30
2023-02-07T00:30:02.260Z,1031.29
2023-02-07T00:31:02.329Z,1031.31
2023-02-07T00:32:02.248Z,1031.34
2023-02-07T00:33:02.224Z,1031.37
2023-02-07T00:34:02.225Z,1031.40
2023-02-07T00:35:02.221Z,1031.42
2023-02-07T00:36:02.184Z,1031.43
2023-02-07T00:37:02.202Z,1031.44
2023-02-07T00:38:02.168Z,1031.42
2023-02-07T00:39:02.182Z,1031.39
2023-02-07T00:40:02.178Z,1031.37
2023-02-07T00:41:02.137Z,1031.36
2023-02-07T00:42:02.145Z,1031.35
2023-02-07T00:43:02.136Z,1031.33
2023-02-07T00:44:02.102Z,1031.33
2023-02-07T00:45:02.123Z,1031.34
2023-02-07T00:46:02.102Z,1031.36
2023-02-07T00:47:02.083Z,1031.36
2023-02-07T00:48:02.064Z,1031.35
2023-02-07T00:49:02.058Z,1031.33
2023-02-07T00:50:02.056Z,1031.32
2023-02-07T00:51:02.032Z,1031.33
2023-02-07T00:52:02.045Z,1031.34
2023-02-07T00:53:02.017Z,1031.34
2023-02-07T00:54:02.001Z,1031.32
2023-02-07T00:55:02.039Z,1031.31
2023-02-07T00:56:01.994Z,1031.29
2023-02-07T00:57:01.984Z,1031.30
2023-02-07T00:58:01.957Z,1031.31
2023-02-07T00:59:01.950Z,1031.32
2023-02-07T01:00:01.955Z,1031.32
2023-02-07T01:01:01.994Z,1031.32
2023-02-07T01:02:01.923Z,1031.33
2023-02-07T01:03:01.923Z,1031.33
2023-02-07T01:04:01.904Z,1031.33
2023-02-07T01:05:01.972Z,1031.31
2023-02-07T01:06:01.894Z,1031.28
2023-02-07T01:07:01.868Z,1031.25
2023-02-07T01:08:01.876Z,1031.24
2023-02-07T01:09:01.861Z,1031.23
2023-02-07T01:10:01.859Z,1031.22
2023-02-07T01:11:01.866Z,1031.21
2023-02-07T01:12:01.817Z,1031.21
2023-02-07T01:13:01.811Z,1031.20
2023-02-07T01:14:01.821Z,1031.22
2023-02-07T01:15:01.818Z,1031.25
2023-02-07T01:16:01.822Z,1031.27
2023-02-07T01:17:01.774Z,1031.28
2023-02-07T01:18:01.762Z,1031.29
2023-02-07T01:19:01.765Z,1031.33
2023-02-07T01:20:01.811Z,1031.36
2023-02-07T01:21:01.751Z,1031.36
2023-02-07T01:22:01.732Z,1031.37
2023-02-07T01:23:01.723Z,1031.37
2023-02-07T01:24:01.752Z,1031.37
2023-02-07T01:25:01.706Z,1031.39
2023-02-07T01:26:01.682Z,1031.42
2023-02-07T01:27:01.665Z,1031.44
2023-02-07T01:28:01.697Z,1031.45
2023-02-07T01:29:01.642Z,1031.46
2023-02-07T01:30:01.661Z,1031.46
2023-02-07T01:31:01.711Z,1031.45
2023-02-07T01:32:01.630Z,1031.45
2023-02-07T01:33:01.620Z,1031.46
2023-02-07T01:34:03.604Z,1031.46
2023-02-07T01:35:01.596Z,1031.41
2023-02-07T01:36:01.576Z,1031.33
2023-02-07T01:37:01.568Z,1031.24
2023-02-07T01:38:01.545Z,1031.18
2023-02-07T01:39:01.549Z,1031.17
2023-02-07T01:40:01.597Z,1031.19
2023-02-07T01:41:01.538Z,1031.17
2023-02-07T01:42:01.539Z,1031.14
2023-02-07T01:43:01.538Z,1031.11
2023-02-07T01:44:01.481Z,1031.08
2023-02-07T01:45:01.496Z,1031.06
2023-02-07T01:46:01.521Z,1031.04
2023-02-07T01:47:01.464Z,1031.01
2023-02-07T01:48:01.449Z,1030.98
2023-02-07T01:49:01.444Z,1030.98
2023-02-07T01:50:01.441Z,1030.98
2023-02-07T01:51:01.429Z,1031.00
2023-02-07T01:52:01.399Z,1031.01
2023-02-07T01:53:01.397Z,1031.02
2023-02-07T01:54:01.375Z,1031.02
2023-02-07T01:55:01.401Z,1031.02
2023-02-07T01:56:01.356Z,1031.01
2023-02-07T01:57:01.375Z,1031.00
2023-02-07T01:58:01.370Z,1031.01
2023-02-07T01:59:01.328Z,1031.02
2023-02-07T02:00:01.352Z,1031.03
2023-02-07T02:01:01.311Z,1031.04
2023-02-07T02:02:01.309Z,1031.03
2023-02-07T02:03:01.306Z,1031.02
2023-02-07T02:04:01.280Z,1031.00
2023-02-07T02:05:01.298Z,1030.97
2023-02-07T02:06:01.255Z,1030.96
2023-02-07T02:07:01.245Z,1030.96
2023-02-07T02:08:01.249Z,1030.92
2023-02-07T02:09:01.221Z,1030.91
2023-02-07T02:10:01.226Z,1030.91
2023-02-07T02:11:01.200Z,1030.89
2023-02-07T02:12:01.186Z,1030.89
2023-02-07T02:13:01.216Z,1030.87
2023-02-07T02:14:01.173Z,1030.86
2023-02-07T02:15:01.221Z,1030.85
2023-02-07T02:16:01.211Z,1030.84
2023-02-07T02:17:01.144Z,1030.84
2023-02-07T02:18:01.129Z,1030.85
2023-02-07T02:19:01.143Z,1030.86
2023-02-07T02:20:01.129Z,1030.87
2023-02-07T02:21:01.113Z,1030.86
2023-02-07T02:22:01.091Z,1030.88
2023-02-07T02:23:01.090Z,1030.90
2023-02-07T02:24:01.078Z,1030.92
2023-02-07T02:25:01.077Z,1030.95
2023-02-07T02:26:01.047Z,1030.95
2023-02-07T02:27:01.040Z,1030.94
2023-02-07T02:28:01.058Z,1030.92
2023-02-07T02:29:01.040Z,1030.91
2023-02-07T02:30:01.012Z,1030.90
2023-02-07T02:31:01.043Z,1030.90
2023-02-07T02:32:01.027Z,1030.91
2023-02-07T02:33:00.978Z,1030.91
2023-02-07T02:34:00.971Z,1030.92
2023-02-07T02:35:00.968Z,1030.94
2023-02-07T02:36:00.952Z,1030.95
2023-02-07T02:37:00.943Z,1030.97
2023-02-07T02:38:00.935Z,1030.99
2023-02-07T02:39:00.924Z,1031.00
2023-02-07T02:40:00.920Z,1031.00
2023-02-07T02:41:00.888Z,1030.99
2023-02-07T02:42:00.904Z,1030.97
2023-02-07T02:43:00.885Z,1030.96
2023-02-07T02:44:00.896Z,1030.96
2023-02-07T02:45:00.869Z,1030.97
2023-02-07T02:46:00.863Z,1030.97
2023-02-07T02:47:00.839Z,1030.95
2023-02-07T02:48:00.825Z,1030.93
2023-02-07T02:49:00.836Z,1030.91
2023-02-07T02:50:00.820Z,1030.91
2023-02-07T02:51:00.790Z,1030.91
2023-02-07T02:52:00.794Z,1030.91
2023-02-07T02:53:00.777Z,1030.92
2023-02-07T02:54:00.779Z,1030.93
2023-02-07T02:55:00.783Z,1030.93
2023-02-07T02:56:00.743Z,1030.93
2023-02-07T02:57:00.729Z,1030.93
2023-02-07T02:58:02.146Z,1030.93
2023-02-07T02:59:00.709Z,1030.94
2023-02-07T03:00:00.793Z,1030.96
2023-02-07T03:01:00.715Z,1030.96
2023-02-07T03:02:00.773Z,1030.95
2023-02-07T03:03:00.674Z,1030.93
2023-02-07T03:04:00.716Z,1030.92
2023-02-07T03:05:00.737Z,1030.90
2023-02-07T03:06:00.669Z,1030.90
2023-02-07T03:07:00.627Z,1030.91
2023-02-07T03:08:00.649Z,1030.91
2023-02-07T03:09:00.618Z,1030.91
2023-02-07T03:10:00.641Z,1030.90
2023-02-07T03:11:00.606Z,1030.88
2023-02-07T03:12:00.586Z,1030.86
2023-02-07T03:13:00.570Z,1030.83
2023-02-07T03:14:00.562Z,1030.82
2023-02-07T03:15:00.583Z,1030.82
2023-02-07T03:16:00.566Z,1030.80
2023-02-07T03:17:00.526Z,1030.81
2023-02-07T03:18:00.525Z,1030.82
2023-02-07T03:19:00.502Z,1030.83
2023-02-07T03:20:00.515Z,1030.83
2023-02-07T03:21:01.406Z,1030.82
2023-02-07T03:22:00.473Z,1030.80
2023-02-07T03:23:00.481Z,1030.80
2023-02-07T03:24:00.453Z,1030.81
2023-02-07T03:25:00.460Z,1030.82
2023-02-07T03:26:00.437Z,1030.82
2023-02-07T03:27:00.431Z,1030.79
2023-02-07T03:28:00.446Z,1030.76
2023-02-07T03:29:00.398Z,1030.73
2023-02-07T03:30:00.398Z,1030.71
2023-02-07T03:31:00.434Z,1030.71
2023-02-07T03:32:00.378Z,1030.72
2023-02-07T03:33:00.354Z,1030.72
2023-02-07T03:34:00.344Z,1030.71
2023-02-07T03:35:00.357Z,1030.71
2023-02-07T03:36:00.341Z,1030.70
2023-02-07T03:37:00.324Z,1030.69
2023-02-07T03:38:00.303Z,1030.68
2023-02-07T03:39:00.295Z,1030.68
2023-02-07T03:40:00.302Z,1030.67
2023-02-07T03:41:00.283Z,1030.68
2023-02-07T03:42:00.261Z,1030.71
2023-02-07T03:43:00.250Z,1030.74
2023-02-07T03:44:00.264Z,1030.77
2023-02-07T03:45:00.257Z,1030.78
2023-02-07T03:46:00.227Z,1030.79
2023-02-07T03:47:00.208Z,1030.80
2023-02-07T03:48:00.198Z,1030.82
2023-02-07T03:49:00.183Z,1030.81
2023-02-07T03:50:00.197Z,1030.79
2023-02-07T03:51:00.167Z,1030.78
2023-02-07T03:52:00.193Z,1030.76
2023-02-07T03:53:00.147Z,1030.76
2023-02-07T03:54:00.185Z,1030.76
2023-02-07T03:55:00.133Z,1030.76
2023-02-07T03:56:00.131Z,1030.77
2023-02-07T03:57:00.111Z,1030.79
2023-02-07T03:58:00.114Z,1030.80
2023-02-07T03:59:00.114Z,1030.80
2023-02-07T04:00:00.109Z,1030.81
2023-02-07T04:01:00.133Z,1030.82
2023-02-07T04:02:00.120Z,1030.84
2023-02-07T04:03:00.043Z,1030.83
2023-02-07T04:04:00.043Z,1030.83
2023-02-07T04:05:00.055Z,1030.83
2023-02-07T04:06:00.032Z,1030.81
2023-02-07T04:07:00.007Z,1030.81
2023-02-07T04:08:00.000Z,1030.81
2023-02-07T04:08:59.982Z,1030.79
2023-02-07T04:10:00.005Z,1030.77
2023-02-07T04:10:59.981Z,1030.76
2023-02-07T04:11:59.963Z,1030.73
2023-02-07T04:12:59.958Z,1030.70
2023-02-07T04:13:59.933Z,1030.69
2023-02-07T04:14:59.928Z,1030.68
2023-02-07T04:15:59.938Z,1030.68
2023-02-07T04:16:59.903Z,1030.66
2023-02-07T04:17:59.894Z,1030.65
2023-02-07T04:18:59.881Z,1030.64
2023-02-07T04:19:59.876Z,1030.63
2023-02-07T04:20:59.866Z,1030.63
2023-02-07T04:21:59.849Z,1030.61
2023-02-07T04:22:59.838Z,1030.60
2023-02-07T04:23:59.841Z,1030.60
2023-02-07T04:24:59.823Z,1030.60
2023-02-07T04:25:59.830Z,1030.59
2023-02-07T04:26:59.800Z,1030.60
2023-02-07T04:27:59.830Z,1030.62
2023-02-07T04:28:59.774Z,1030.64
2023-02-07T04:29:59.775Z,1030.65
2023-02-07T04:30:59.810Z,1030.66
2023-02-07T04:31:59.806Z,1030.68
2023-02-07T04:32:59.761Z,1030.71
2023-02-07T04:33:59.728Z,1030.73
2023-02-07T04:34:59.710Z,1030.73
2023-02-07T04:35:59.716Z,1030.75
2023-02-07T04:36:59.696Z,1030.77
2023-02-07T04:37:59.689Z,1030.79
2023-02-07T04:38:59.674Z,1030.80
2023-02-07T04:39:59.661Z,1030.81
2023-02-07T04:40:59.676Z,1030.81
2023-02-07T04:41:59.641Z,1030.83
2023-02-07T04:42:59.639Z,1030.82
2023-02-07T04:43:59.621Z,1030.80
2023-02-07T04:44:59.632Z,1030.79
2023-02-07T04:45:59.635Z,1030.76
2023-02-07T04:46:59.591Z,1030.75
2023-02-07T04:47:59.581Z,1030.75
2023-02-07T04:48:59.564Z,1030.76
2023-02-07T04:49:59.563Z,1030.75
2023-02-07T04:50:59.567Z,1030.75
2023-02-07T04:51:59.551Z,1030.76
2023-02-07T04:52:59.541Z,1030.76
2023-02-07T04:53:59.524Z,1030.75
2023-02-07T04:54:59.501Z,1030.74
2023-02-07T04:55:59.520Z,1030.74
2023-02-07T04:56:59.493Z,1030.74
2023-02-07T04:57:59.474Z,1030.75
2023-02-07T04:58:59.463Z,1030.76
2023-02-07T04:59:59.479Z,1030.77
2023-02-07T05:00:59.507Z,1030.78
2023-02-07T05:01:59.444Z,1030.76
2023-02-07T05:03:00.730Z,1030.74
2023-02-07T05:03:59.430Z,1030.72
2023-02-07T05:04:59.403Z,1030.71
2023-02-07T05:05:59.404Z,1030.71
2023-02-07T05:06:59.376Z,1030.71
2023-02-07T05:07:59.374Z,1030.71
2023-02-07T05:08:59.377Z,1030.71
2023-02-07T05:09:59.393Z,1030.72
2023-02-07T05:10:59.350Z,1030.74
2023-02-07T05:11:59.340Z,1030.76
2023-02-07T05:12:59.340Z,1030.78
2023-02-07T05:13:59.333Z,1030.79
2023-02-07T05:14:59.450Z,1030.81
2023-02-07T05:15:59.306Z,1030.81
2023-02-07T05:16:59.381Z,1030.82
2023-02-07T05:17:59.272Z,1030.81
2023-02-07T05:18:59.278Z,1030.80
2023-02-07T05:19:59.268Z,1030.79
2023-02-07T05:20:59.264Z,1030.78
2023-02-07T05:21:59.230Z,1030.77
2023-02-07T05:22:59.226Z,1030.78
2023-02-07T05:23:59.223Z,1030.78
2023-02-07T05:24:59.216Z,1030.80
2023-02-07T05:25:59.213Z,1030.80
2023-02-07T05:26:59.182Z,1030.78
2023-02-07T05:27:59.233Z,1030.77
2023-02-07T05:28:59.165Z,1030.75
2023-02-07T05:29:59.182Z,1030.75
2023-02-07T05:30:59.247Z,1030.74
2023-02-07T05:31:59.134Z,1030.73
2023-02-07T05:32:59.119Z,1030.75
2023-02-07T05:33:59.118Z,1030.77
2023-02-07T05:34:59.092Z,1030.78
2023-02-07T05:35:59.096Z,1030.78
2023-02-07T05:36:59.099Z,1030.79
2023-02-07T05:37:59.072Z,1030.79
2023-02-07T05:38:59.070Z,1030.81
2023-02-07T05:39:59.055Z,1030.81
2023-02-07T05:40:59.075Z,1030.82
2023-02-07T05:41:59.039Z,1030.84
2023-02-07T05:42:59.042Z,1030.85
2023-02-07T05:43:59.013Z,1030.85
2023-02-07T05:44:59.014Z,1030.85
2023-02-07T05:45:59.036Z,1030.84
2023-02-07T05:46:59.003Z,1030.83
2023-02-07T05:47:58.973Z,1030.82
2023-02-07T05:48:58.950Z,1030.82
2023-02-07T05:49:58.949Z,1030.81
2023-02-07T05:50:58.936Z,1030.81
2023-02-07T05:51:58.940Z,1030.81
2023-02-07T05:52:58.905Z,1030.82
2023-02-07T05:53:58.903Z,1030.84
2023-02-07T05:54:58.930Z,1030.86
2023-02-07T05:55:58.885Z,1030.86
2023-02-07T05:56:58.969Z,1030.87
2023-02-07T05:57:58.892Z,1030.87
2023-02-07T05:58:58.858Z,1030.87
2023-02-07T05:59:58.845Z,1030.88
2023-02-07T06:00:58.841Z,1030.91
2023-02-07T06:01:58.833Z,1030.95
2023-02-07T06:02:58.817Z,1030.97
2023-02-07T06:03:58.791Z,1030.99
2023-02-07T06:04:58.789Z,1030.99
2023-02-07T06:05:58.804Z,1030.99
2023-02-07T06:06:58.791Z,1031.00
2023-02-07T06:07:58.751Z,1031.03
2023-02-07T06:08:58.778Z,1031.07
2023-02-07T06:09:58.750Z,1031.09
2023-02-07T06:10:58.728Z,1031.10
2023-02-07T06:11:58.749Z,1031.10
2023-02-07T06:12:58.725Z,1031.11
2023-02-07T06:13:58.641Z,1031.12
2023-02-07T06:14:58.681Z,1031.13
2023-02-07T06:15:58.634Z,1031.14
2023-02-07T06:16:58.644Z,1031.15
2023-02-07T06:17:58.598Z,1031.17
2023-02-07T06:18:58.649Z,1031.18
2023-02-07T06:19:58.611Z,1031.19
2023-02-07T06:20:58.551Z,1031.19
2023-02-07T06:21:58.632Z,1031.18
2023-02-07T06:22:58.589Z,1031.18
2023-02-07T06:23:58.540Z,1031.20
2023-02-07T06:24:58.521Z,1031.22
2023-02-07T06:25:58.504Z,1031.22
2023-02-07T06:26:58.505Z,1031.23
2023-02-07T06:27:58.506Z,1031.23
2023-02-07T06:28:58.474Z,1031.23
2023-02-07T06:29:58.467Z,1031.20
2023-02-07T06:30:58.601Z,1031.18
2023-02-07T06:31:58.472Z,1031.16
2023-02-07T06:32:58.435Z,1031.15
2023-02-07T06:33:58.429Z,1031.13
2023-02-07T06:34:58.413Z,1031.14
2023-02-07T06:35:58.418Z,1031.15
2023-02-07T06:36:58.398Z,1031.18
2023-02-07T06:37:58.382Z,1031.19
2023-02-07T06:38:58.376Z,1031.18
2023-02-07T06:39:58.361Z,1031.18
2023-02-07T06:40:58.345Z,1031.19
2023-02-07T06:41:58.358Z,1031.21
2023-02-07T06:42:58.328Z,1031.24
2023-02-07T06:43:58.334Z,1031.26
2023-02-07T06:44:58.313Z,1031.28
2023-02-07T06:45:58.329Z,1031.28
2023-02-07T06:46:58.315Z,1031.28
2023-02-07T06:47:58.283Z,1031.26
2023-02-07T06:48:58.277Z,1031.25
2023-02-07T06:49:58.277Z,1031.23
2023-02-07T06:50:58.389Z,1031.23
2023-02-07T06:51:58.249Z,1031.25
2023-02-07T06:52:58.234Z,1031.26
2023-02-07T06:53:58.217Z,1031.28
2023-02-07T06:54:58.221Z,1031.28
2023-02-07T06:55:58.193Z,1031.28
2023-02-07T06:56:58.204Z,1031.29
2023-02-07T06:57:58.177Z,1031.30
2023-02-07T06:58:58.172Z,1031.31
2023-02-07T06:59:58.161Z,1031.30
2023-02-07T07:00:58.155Z,1031.30
2023-02-07T07:01:58.158Z,1031.28
2023-02-07T07:02:58.187Z,1031.29
2023-02-07T07:03:58.124Z,1031.30
2023-02-07T07:04:58.114Z,1031.31
2023-02-07T07:05:58.099Z,1031.32
2023-02-07T07:06:58.096Z,1031.33
2023-02-07T07:07:58.071Z,1031.36
2023-02-07T07:08:58.068Z,1031.38
2023-02-07T07:09:58.076Z,1031.41
2023-02-07T07:10:58.053Z,1031.42
2023-02-07T07:11:58.040Z,1031.43
2023-02-07T07:12:58.025Z,1031.44
2023-02-07T07:13:58.013Z,1031.47
2023-02-07T07:14:58.013Z,1031.50
2023-02-07T07:15:58.023Z,1031.52
2023-02-07T07:16:58.010Z,1031.54
2023-02-07T07:17:57.975Z,1031.53
2023-02-07T07:18:57.991Z,1031.57
2023-02-07T07:19:57.953Z,1031.59
2023-02-07T07:20:57.944Z,1031.59
2023-02-07T07:21:57.930Z,1031.62
2023-02-07T07:22:57.934Z,1031.63
2023-02-07T07:23:57.909Z,1031.62
2023-02-07T07:24:57.904Z,1031.62
2023-02-07T07:25:57.893Z,1031.61
2023-02-07T07:26:57.887Z,1031.59
2023-02-07T07:27:57.917Z,1031.56
2023-02-07T07:28:57.875Z,1031.56
2023-02-07T07:29:57.845Z,1031.59
2023-02-07T07:30:58.026Z,1031.62
2023-02-07T07:31:57.833Z,1031.64
2023-02-07T07:32:57.833Z,1031.64
2023-02-07T07:33:57.809Z,1031.65
2023-02-07T07:34:57.804Z,1031.62
2023-02-07T07:35:57.784Z,1031.61
2023-02-07T07:36:57.775Z,1031.62
2023-02-07T07:37:57.775Z,1031.60
2023-02-07T07:38:57.751Z,1031.59
2023-02-07T07:39:57.754Z,1031.61
2023-02-07T07:40:57.733Z,1031.64
2023-02-07T07:41:57.724Z,1031.66
2023-02-07T07:42:57.737Z,1031.68
2023-02-07T07:43:57.698Z,1031.69
2023-02-07T07:44:57.703Z,1031.69
2023-02-07T07:45:57.710Z,1031.68
2023-02-07T07:46:57.684Z,1031.65
2023-02-07T07:47:57.698Z,1031.65
2023-02-07T07:48:57.656Z,1031.64
2023-02-07T07:49:57.641Z,1031.63
2023-02-07T07:50:57.626Z,1031.64
2023-02-07T07:51:57.602Z,1031.65
2023-02-07T07:52:57.624Z,1031.64
2023-02-07T07:53:57.589Z,1031.63
2023-02-07T07:54:57.592Z,1031.63
2023-02-07T07:55:57.562Z,1031.61
2023-02-07T07:56:57.561Z,1031.59
2023-02-07T07:57:57.564Z,1031.58
2023-02-07T07:58:57.541Z,1031.57
2023-02-07T07:59:57.531Z,1031.57
2023-02-07T08:00:57.559Z,1031.58
2023-02-07T08:01:57.509Z,1031.58
2023-02-07T08:02:57.505Z,1031.61
2023-02-07T08:03:57.521Z,1031.64
2023-02-07T08:04:57.476Z,1031.68
2023-02-07T08:05:57.465Z,1031.71
2023-02-07T08:06:57.455Z,1031.76
2023-02-07T08:07:57.456Z,1031.79
2023-02-07T08:08:57.427Z,1031.80
2023-02-07T08:09:57.415Z,1031.82
2023-02-07T08:10:57.413Z,1031.83
2023-02-07T08:11:57.396Z,1031.84
2023-02-07T08:12:57.396Z,1031.83
2023-02-07T08:13:57.373Z,1031.82
2023-02-07T08:14:57.368Z,1031.80
2023-02-07T08:15:57.425Z,1031.80
2023-02-07T08:16:57.343Z,1031.81
2023-02-07T08:17:57.337Z,1031.82
2023-02-07T08:18:57.324Z,1031.84
2023-02-07T08:19:57.318Z,1031.85
2023-02-07T08:20:57.299Z,1031.87
2023-02-07T08:21:57.287Z,1031.89
2023-02-07T08:22:57.289Z,1031.90
2023-02-07T08:23:57.262Z,1031.91
2023-02-07T08:24:57.260Z,1031.90
2023-02-07T08:25:57.241Z,1031.90
2023-02-07T08:26:57.253Z,1031.89
2023-02-07T08:27:57.262Z,1031.88
2023-02-07T08:28:57.221Z,1031.87
2023-02-07T08:29:57.204Z,1031.88
2023-02-07T08:30:57.208Z,1031.89
2023-02-07T08:31:57.207Z,1031.90
2023-02-07T08:32:57.166Z,1031.91
2023-02-07T08:33:57.166Z,1031.96
2023-02-07T08:34:57.146Z,1031.99
2023-02-07T08:35:57.132Z,1031.98
2023-02-07T08:36:57.139Z,1031.96
2023-02-07T08:37:57.112Z,1031.97
2023-02-07T08:38:57.116Z,1031.97
2023-02-07T08:39:57.114Z,1031.97
2023-02-07T08:40:57.089Z,1031.97
2023-02-07T08:41:57.086Z,1031.99
2023-02-07T08:42:57.079Z,1032.00
2023-02-07T08:43:57.056Z,1032.01
2023-02-07T08:44:57.036Z,1032.02
2023-02-07T08:45:57.095Z,1032.03
2023-02-07T08:46:57.017Z,1032.04
2023-02-07T08:47:57.001Z,1032.01
2023-02-07T08:48:57.010Z,1031.99
2023-02-07T08:49:56.994Z,1031.96
2023-02-07T08:50:57.975Z,1031.93
2023-02-07T08:51:56.964Z,1031.92
2023-02-07T08:52:56.953Z,1031.90
2023-02-07T08:53:56.950Z,1031.88
2023-02-07T08:54:56.926Z,1031.88
2023-02-07T08:55:56.920Z,1031.87
2023-02-07T08:56:56.903Z,1031.86
2023-02-07T08:57:56.900Z,1031.84
2023-02-07T08:58:56.894Z,1031.81
2023-02-07T08:59:56.875Z,1031.78
2023-02-07T09:00:56.873Z,1031.76
2023-02-07T09:01:56.885Z,1031.73
2023-02-07T09:02:56.843Z,1031.71
2023-02-07T09:03:56.833Z,1031.69
2023-02-07T09:04:56.820Z,1031.65
2023-02-07T09:05:56.819Z,1031.62
2023-02-07T09:06:56.819Z,1031.59
2023-02-07T09:07:56.787Z,1031.61
2023-02-07T09:08:56.826Z,1031.62
2023-02-07T09:09:56.770Z,1031.58
2023-02-07T09:10:56.868Z,1031.58
2023-02-07T09:11:56.740Z,1031.59
2023-02-07T09:12:56.752Z,1031.59
2023-02-07T09:13:56.732Z,1031.60
2023-02-07T09:14:56.723Z,1031.61
2023-02-07T09:15:56.719Z,1031.61
2023-02-07T09:16:56.720Z,1031.59
2023-02-07T09:17:56.678Z,1031.58
2023-02-07T09:18:56.722Z,1031.59
2023-02-07T09:19:56.660Z,1031.57
2023-02-07T09:20:56.658Z,1031.56
2023-02-07T09:21:56.643Z,1031.56
2023-02-07T09:22:56.675Z,1031.57
2023-02-07T09:23:56.676Z,1031.56
2023-02-07T09:24:56.626Z,1031.57
2023-02-07T09:25:56.591Z,1031.54
2023-02-07T09:26:56.587Z,1031.56
2023-02-07T09:27:56.634Z,1031.58
2023-02-07T09:28:56.577Z,1031.56
2023-02-07T09:29:56.583Z,1031.54
2023-02-07T09:30:56.612Z,1031.53
2023-02-07T09:31:56.758Z,1031.52
2023-02-07T09:32:56.525Z,1031.53
2023-02-07T09:33:56.527Z,1031.51
2023-02-07T09:34:56.614Z,1031.48
2023-02-07T09:35:56.492Z,1031.47
2023-02-07T09:36:56.483Z,1031.48
2023-02-07T09:37:56.497Z,1031.48
2023-02-07T09:38:56.471Z,1031.46
2023-02-07T09:39:56.446Z,1031.45
2023-02-07T09:40:56.440Z,1031.40
2023-02-07T09:41:56.432Z,1031.39
2023-02-07T09:42:56.729Z,1031.41
2023-02-07T09:43:56.583Z,1031.41
2023-02-07T09:44:56.732Z,1031.43
2023-02-07T09:45:56.444Z,1031.42
2023-02-07T09:46:56.380Z,1031.36
2023-02-07T09:47:56.358Z,1031.40
2023-02-07T09:48:56.365Z,1031.38
2023-02-07T09:49:56.342Z,1031.38
2023-02-07T09:50:56.338Z,1031.36
2023-02-07T09:51:56.334Z,1031.35
2023-02-07T09:52:56.317Z,1031.33
2023-02-07T09:53:56.321Z,1031.29
2023-02-07T09:54:56.291Z,1031.29
2023-02-07T09:55:56.323Z,1031.30
2023-02-07T09:56:56.270Z,1031.27
2023-02-07T09:57:56.256Z,1031.29
2023-02-07T09:58:56.260Z,1031.30
2023-02-07T09:59:56.232Z,1031.31
2023-02-07T10:00:56.268Z,1031.33
2023-02-07T10:01:56.228Z,1031.32
2023-02-07T10:02:56.254Z,1031.31
2023-02-07T10:03:56.229Z,1031.32
2023-02-07T10:04:56.176Z,1031.34
2023-02-07T10:05:57.186Z,1031.33
2023-02-07T10:06:56.170Z,1031.33
2023-02-07T10:07:56.138Z,1031.31
2023-02-07T10:08:56.152Z,1031.30
2023-02-07T10:09:56.126Z,1031.31
2023-02-07T10:10:56.148Z,1031.31
2023-02-07T10:11:56.142Z,1031.31
2023-02-07T10:12:56.090Z,1031.30
2023-02-07T10:13:56.177Z,1031.29
2023-02-07T10:14:56.116Z,1031.28
2023-02-07T10:15:56.127Z,1031.30
2023-02-07T10:16:56.056Z,1031.30
2023-02-07T10:17:56.084Z,1031.26
2023-02-07T10:18:56.042Z,1031.28
2023-02-07T10:19:56.067Z,1031.29
2023-02-07T10:20:56.028Z,1031.29
2023-02-07T10:21:56.013Z,1031.27
2023-02-07T10:22:56.018Z,1031.30
2023-02-07T10:23:56.084Z,1031.30
2023-02-07T10:24:56.046Z,1031.31
2023-02-07T10:25:56.003Z,1031.31
2023-02-07T10:26:55.972Z,1031.31
2023-02-07T10:27:56.038Z,1031.29
2023-02-07T10:28:55.954Z,1031.30
2023-02-07T10:29:55.989Z,1031.32
2023-02-07T10:30:56.038Z,1031.31
2023-02-07T10:31:56.170Z,1031.28
2023-02-07T10:32:55.889Z,1031.26
2023-02-07T10:33:55.922Z,1031.24
2023-02-07T10:34:55.904Z,1031.25
2023-02-07T10:35:55.843Z,1031.24
2023-02-07T10:36:55.865Z,1031.22
2023-02-07T10:37:56.110Z,1031.22
2023-02-07T10:39:07.723Z,1031.20
2023-02-07T10:39:55.817Z,1031.19
2023-02-07T10:40:55.818Z,1031.19
2023-02-07T10:41:55.804Z,1031.17
2023-02-07T10:42:55.843Z,1031.18
2023-02-07T10:43:55.775Z,1031.17
2023-02-07T10:44:55.759Z,1031.18
2023-02-07T10:46:00.822Z,1031.20
2023-02-07T10:46:55.785Z,1031.17
2023-02-07T10:47:55.730Z,1031.18
2023-02-07T10:48:55.736Z,1031.19
2023-02-07T10:49:55.694Z,1031.22
2023-02-07T10:50:55.746Z,1031.25
2023-02-07T10:51:55.697Z,1031.22
2023-02-07T10:52:55.668Z,1031.15
2023-02-07T10:53:57.156Z,1031.16
2023-02-07T10:54:55.682Z,1031.17
2023-02-07T10:55:55.630Z,1031.22
2023-02-07T10:56:57.804Z,1031.22
2023-02-07T10:58:02.609Z,1031.21
2023-02-07T10:58:55.665Z,1031.23
2023-02-07T10:59:55.589Z,1031.24
2023-02-07T11:00:55.591Z,1031.24
2023-02-07T11:01:55.594Z,1031.24
2023-02-07T11:02:55.708Z,1031.25
2023-02-07T11:03:55.587Z,1031.26
2023-02-07T11:04:55.578Z,1031.26
2023-02-07T11:05:55.617Z,1031.26
2023-02-07T11:06:55.545Z,1031.21
2023-02-07T11:07:55.546Z,1031.25
2023-02-07T11:08:55.663Z,1031.28
2023-02-07T11:09:55.496Z,1031.30
2023-02-07T11:10:55.482Z,1031.33
2023-02-07T11:11:55.492Z,1031.33
2023-02-07T11:12:55.472Z,1031.31
2023-02-07T11:13:55.612Z,1031.30
2023-02-07T11:14:55.461Z,1031.30
2023-02-07T11:15:55.479Z,1031.28
2023-02-07T11:16:55.422Z,1031.30
2023-02-07T11:17:55.440Z,1031.29
2023-02-07T11:18:55.420Z,1031.27
2023-02-07T11:19:55.410Z,1031.29
2023-02-07T11:20:55.398Z,1031.30
2023-02-07T11:21:55.404Z,1031.31
2023-02-07T11:22:55.347Z,1031.29
2023-02-07T11:23:56.573Z,1031.31
2023-02-07T11:24:55.334Z,1031.29
2023-02-07T11:25:55.343Z,1031.28
2023-02-07T11:26:55.300Z,1031.25
2023-02-07T11:27:55.414Z,1031.25
2023-02-07T11:28:55.306Z,1031.28
2023-02-07T11:29:55.310Z,1031.29
2023-02-07T11:30:55.408Z,1031.26
2023-02-07T11:31:55.268Z,1031.23
2023-02-07T11:32:55.269Z,1031.22
2023-02-07T11:33:55.277Z,1031.21
2023-02-07T11:34:55.259Z,1031.21
2023-02-07T11:35:55.231Z,1031.22
2023-02-07T11:36:55.232Z,1031.21
2023-02-07T11:37:55.200Z,1031.19
2023-02-07T11:38:55.203Z,1031.19
2023-02-07T11:39:55.191Z,1031.18
2023-02-07T11:40:55.203Z,1031.17
2023-02-07T11:41:55.170Z,1031.16
2023-02-07T11:42:55.157Z,1031.15
2023-02-07T11:43:55.188Z,1031.16
2023-02-07T11:44:55.149Z,1031.16
2023-02-07T11:45:55.148Z,1031.15
2023-02-07T11:46:55.142Z,1031.15
2023-02-07T11:47:55.108Z,1031.13
2023-02-07T11:48:55.113Z,1031.11
2023-02-07T11:49:55.087Z,1031.10
2023-02-07T11:50:55.081Z,1031.09
2023-02-07T11:51:55.059Z,1031.09
2023-02-07T11:52:55.069Z,1031.08
2023-02-07T11:53:55.046Z,1031.06
2023-02-07T11:54:55.040Z,1031.05
2023-02-07T11:55:55.038Z,1031.04
2023-02-07T11:56:55.029Z,1031.01
2023-02-07T11:57:55.011Z,1031.03
2023-02-07T11:58:55.017Z,1031.01
2023-02-07T11:59:54.982Z,1031.02
2023-02-07T12:00:55.018Z,1031.02
2023-02-07T12:01:55.011Z,1030.98
2023-02-07T12:02:54.969Z,1030.96
2023-02-07T12:03:54.982Z,1030.94
2023-02-07T12:04:55.002Z,1030.93